createdAt,value
2016-09-01T00:00:32.754Z,14.69
2016-09-01T00:01:32.787Z,14.88
2016-09-01T00:02:32.753Z,14.94
2016-09-01T00:03:33.284Z,14.9
2016-09-01T00:04:32.778Z,14.8
2016-09-01T00:05:32.767Z,14.86
2016-09-01T00:06:33.008Z,14.81
2016-09-01T00:07:32.753Z,14.9
2016-09-01T00:08:32.786Z,14.94
2016-09-01T00:09:32.739Z,14.81
2016-09-01T00:10:32.761Z,14.94
2016-09-01T00:11:32.765Z,14.75
2016-09-01T00:12:32.867Z,14.81
2016-09-01T00:13:32.777Z,14.8
2016-09-01T00:14:32.813Z,14.88
2016-09-01T00:15:32.765Z,14.86
2016-09-01T00:16:32.766Z,14.88
2016-09-01T00:17:32.779Z,14.78
2016-09-01T00:18:32.797Z,14.8
2016-09-01T00:19:32.787Z,14.84
2016-09-01T00:20:32.775Z,14.78
2016-09-01T00:21:32.783Z,14.69
2016-09-01T00:22:32.766Z,14.8
2016-09-01T00:23:32.798Z,14.78
2016-09-01T00:24:32.865Z,14.68
2016-09-01T00:25:32.814Z,14.78
2016-09-01T00:26:32.779Z,14.8
2016-09-01T00:27:32.820Z,14.8
2016-09-01T00:28:32.766Z,14.75
2016-09-01T00:29:32.787Z,14.68
2016-09-01T00:30:32.896Z,14.6
2016-09-01T00:31:32.784Z,14.75
2016-09-01T00:32:32.823Z,14.72
2016-09-01T00:33:32.903Z,14.75
2016-09-01T00:34:32.772Z,14.6
2016-09-01T00:35:32.765Z,14.65
2016-09-01T00:36:32.936Z,14.64
2016-09-01T00:37:32.768Z,14.78
2016-09-01T00:38:32.835Z,14.68
2016-09-01T00:39:32.913Z,14.62
2016-09-01T00:40:32.797Z,14.74
2016-09-01T00:41:32.783Z,14.64
2016-09-01T00:42:32.830Z,14.54
2016-09-01T00:43:32.780Z,14.71
2016-09-01T00:44:32.815Z,14.6
2016-09-01T00:45:32.791Z,14.6
2016-09-01T00:46:32.798Z,14.57
2016-09-01T00:47:32.819Z,14.62
2016-09-01T00:48:33.616Z,14.64
2016-09-01T00:49:32.865Z,14.72
2016-09-01T00:50:32.841Z,14.56
2016-09-01T00:51:32.966Z,14.53
2016-09-01T00:52:32.842Z,14.54
2016-09-01T00:53:32.817Z,14.49
2016-09-01T00:54:32.933Z,14.57
2016-09-01T00:55:32.788Z,14.61
2016-09-01T00:56:32.887Z,14.6
2016-09-01T00:57:32.802Z,14.69
2016-09-01T00:58:32.793Z,14.68
2016-09-01T00:59:32.799Z,14.75
2016-09-01T01:00:33.057Z,14.71
2016-09-01T01:01:32.779Z,14.8
2016-09-01T01:02:32.801Z,14.74
2016-09-01T01:03:32.867Z,14.78
2016-09-01T01:04:32.814Z,14.94
2016-09-01T01:05:32.812Z,14.87
2016-09-01T01:06:33.083Z,14.83
2016-09-01T01:07:32.781Z,14.88
2016-09-01T01:08:32.806Z,14.86
2016-09-01T01:09:33.005Z,14.86
2016-09-01T01:10:32.802Z,14.78
2016-09-01T01:11:32.804Z,14.84
2016-09-01T01:12:32.859Z,14.72
2016-09-01T01:13:32.799Z,14.83
2016-09-01T01:14:32.816Z,14.81
2016-09-01T01:15:33.022Z,14.71
2016-09-01T01:16:32.811Z,14.67
2016-09-01T01:17:32.798Z,14.75
2016-09-01T01:18:32.994Z,14.69
2016-09-01T01:19:32.804Z,14.71
2016-09-01T01:20:32.830Z,14.84
2016-09-01T01:21:32.833Z,14.78
2016-09-01T01:22:32.799Z,14.72
2016-09-01T01:23:32.805Z,14.72
2016-09-01T01:24:32.901Z,14.71
2016-09-01T01:25:32.826Z,14.75
2016-09-01T01:26:32.813Z,14.78
2016-09-01T01:27:32.994Z,14.68
2016-09-01T01:28:32.827Z,14.72
2016-09-01T01:29:32.817Z,14.74
2016-09-01T01:30:33.118Z,14.68
2016-09-01T01:31:32.873Z,14.61
2016-09-01T01:32:32.932Z,14.65
2016-09-01T01:33:32.890Z,14.68
2016-09-01T01:34:32.850Z,14.65
2016-09-01T01:35:32.838Z,14.64
2016-09-01T01:36:33.023Z,14.61
2016-09-01T01:37:32.813Z,14.65
2016-09-01T01:38:32.838Z,14.54
2016-09-01T01:39:32.812Z,14.65
2016-09-01T01:40:32.855Z,14.56
2016-09-01T01:41:32.859Z,14.64
2016-09-01T01:42:32.935Z,14.53
2016-09-01T01:43:32.830Z,14.61
2016-09-01T01:44:32.861Z,14.61
2016-09-01T01:45:32.838Z,14.53
2016-09-01T01:46:32.832Z,14.52
2016-09-01T01:47:32.848Z,14.6
2016-09-01T01:48:32.872Z,14.52
2016-09-01T01:49:32.865Z,14.49
2016-09-01T01:50:33.020Z,14.46
2016-09-01T01:51:33.040Z,14.49
2016-09-01T01:52:32.843Z,14.49
2016-09-01T01:53:32.846Z,14.53
2016-09-01T01:54:32.913Z,14.57
2016-09-01T01:55:32.850Z,14.49
2016-09-01T01:56:32.856Z,14.37
2016-09-01T01:57:32.874Z,14.52
2016-09-01T01:58:32.862Z,14.32
2016-09-01T01:59:32.863Z,14.42
2016-09-01T02:00:33.178Z,14.39
2016-09-01T02:01:32.865Z,14.44
2016-09-01T02:02:32.899Z,14.37
2016-09-01T02:03:33.156Z,14.46
2016-09-01T02:04:32.868Z,14.32
2016-09-01T02:05:32.849Z,14.35
2016-09-01T02:06:32.927Z,14.27
2016-09-01T02:07:32.829Z,14.25
2016-09-01T02:08:32.868Z,14.31
2016-09-01T02:09:32.845Z,14.25
2016-09-01T02:10:32.865Z,14.27
2016-09-01T02:11:32.869Z,14.25
2016-09-01T02:12:32.993Z,14.19
2016-09-01T02:13:32.868Z,14.28
2016-09-01T02:14:32.833Z,14.14
2016-09-01T02:15:32.887Z,14.31
2016-09-01T02:16:32.879Z,14.27
2016-09-01T02:17:32.872Z,14.21
2016-09-01T02:18:33.295Z,14.19
2016-09-01T02:19:32.876Z,14.28
2016-09-01T02:20:32.863Z,14.31
2016-09-01T02:21:33.240Z,14.39
2016-09-01T02:22:32.877Z,14.31
2016-09-01T02:23:32.890Z,14.34
2016-09-01T02:24:32.881Z,14.39
2016-09-01T02:25:32.885Z,14.44
2016-09-01T02:26:32.875Z,14.44
2016-09-01T02:27:32.895Z,14.52
2016-09-01T02:28:32.879Z,14.5
2016-09-01T02:29:32.892Z,14.57
2016-09-01T02:30:32.892Z,14.56
2016-09-01T02:31:32.897Z,14.69
2016-09-01T02:32:32.906Z,14.78
2016-09-01T02:33:32.864Z,14.71
2016-09-01T02:34:32.889Z,14.72
2016-09-01T02:35:32.915Z,14.69
2016-09-01T02:36:32.900Z,14.71
2016-09-01T02:37:32.878Z,14.81
2016-09-01T02:38:32.891Z,14.69
2016-09-01T02:39:32.879Z,14.72
2016-09-01T02:40:32.910Z,14.75
2016-09-01T02:41:32.908Z,14.61
2016-09-01T02:42:33.254Z,14.64
2016-09-01T02:43:32.893Z,14.65
2016-09-01T02:44:32.942Z,14.74
2016-09-01T02:45:33.101Z,14.69
2016-09-01T02:46:32.913Z,14.65
2016-09-01T02:47:32.903Z,14.69
2016-09-01T02:48:32.895Z,14.56
2016-09-01T02:49:32.892Z,14.64
2016-09-01T02:50:32.877Z,14.57
2016-09-01T02:51:32.899Z,14.53
2016-09-01T02:52:32.910Z,14.49
2016-09-01T02:53:32.907Z,14.56
2016-09-01T02:54:32.892Z,14.52
2016-09-01T02:55:32.881Z,14.5
2016-09-01T02:56:32.912Z,14.53
2016-09-01T02:57:32.929Z,14.53
2016-09-01T02:58:32.897Z,14.5
2016-09-01T02:59:32.908Z,14.46
2016-09-01T03:00:32.870Z,14.37
2016-09-01T03:01:32.894Z,14.37
2016-09-01T03:02:32.881Z,14.37
2016-09-01T03:03:32.893Z,14.24
2016-09-01T03:04:32.916Z,14.25
2016-09-01T03:05:32.906Z,14.28
2016-09-01T03:06:32.911Z,14.16
2016-09-01T03:07:32.915Z,14.27
2016-09-01T03:08:32.916Z,14.25
2016-09-01T03:09:32.916Z,14.16
2016-09-01T03:10:32.909Z,14.14
2016-09-01T03:11:32.913Z,14.21
2016-09-01T03:12:32.912Z,14.12
2016-09-01T03:13:32.927Z,14.17
2016-09-01T03:14:32.913Z,14.21
2016-09-01T03:15:32.927Z,14.16
2016-09-01T03:16:32.925Z,14.13
2016-09-01T03:17:32.940Z,14.12
2016-09-01T03:18:32.909Z,14.2
2016-09-01T03:19:32.931Z,14.1
2016-09-01T03:20:32.910Z,14.13
2016-09-01T03:21:32.925Z,14.07
2016-09-01T03:22:32.923Z,14.21
2016-09-01T03:23:32.913Z,14.19
2016-09-01T03:24:33.076Z,14.12
2016-09-01T03:25:32.895Z,14.12
2016-09-01T03:26:32.945Z,14.07
2016-09-01T03:27:33.054Z,14.04
2016-09-01T03:28:32.960Z,14.19
2016-09-01T03:29:32.935Z,14.02
2016-09-01T03:30:32.941Z,14.17
2016-09-01T03:31:32.948Z,14.17
2016-09-01T03:32:33.002Z,14.06
2016-09-01T03:33:32.977Z,14.13
2016-09-01T03:34:32.953Z,14.07
2016-09-01T03:35:32.960Z,14.01
2016-09-01T03:36:32.925Z,13.99
2016-09-01T03:37:32.947Z,14.04
2016-09-01T03:38:32.932Z,13.98
2016-09-01T03:39:32.947Z,13.98
2016-09-01T03:40:32.928Z,13.88
2016-09-01T03:41:32.928Z,13.84
2016-09-01T03:42:33.051Z,13.88
2016-09-01T03:43:32.943Z,13.87
2016-09-01T03:44:32.977Z,13.89
2016-09-01T03:45:32.930Z,13.84
2016-09-01T03:46:32.964Z,13.8
2016-09-01T03:47:32.932Z,13.79
2016-09-01T03:48:32.993Z,13.76
2016-09-01T03:49:32.971Z,13.7
2016-09-01T03:50:32.946Z,13.65
2016-09-01T03:51:32.971Z,13.79
2016-09-01T03:52:32.957Z,13.71
2016-09-01T03:53:32.957Z,13.81
2016-09-01T03:54:33.561Z,13.7
2016-09-01T03:55:32.977Z,13.7
2016-09-01T03:56:32.937Z,13.73
2016-09-01T03:57:33.481Z,13.76
2016-09-01T03:58:32.954Z,13.76
2016-09-01T03:59:32.943Z,13.81
2016-09-01T04:00:32.944Z,13.84
2016-09-01T04:01:32.946Z,13.87
2016-09-01T04:02:32.978Z,13.8
2016-09-01T04:03:32.943Z,13.94
2016-09-01T04:04:32.958Z,13.92
2016-09-01T04:05:32.926Z,13.92
2016-09-01T04:06:32.963Z,13.89
2016-09-01T04:07:32.958Z,14.02
2016-09-01T04:08:32.962Z,14.09
2016-09-01T04:09:32.971Z,13.99
2016-09-01T04:10:32.959Z,14.01
2016-09-01T04:11:32.988Z,14.12
2016-09-01T04:12:33.063Z,14.14
2016-09-01T04:13:32.950Z,14.04
2016-09-01T04:14:32.989Z,14.13
2016-09-01T04:15:32.977Z,14.02
2016-09-01T04:16:32.968Z,14.16
2016-09-01T04:17:32.967Z,14.17
2016-09-01T04:18:32.973Z,14.06
2016-09-01T04:19:32.960Z,14.1
2016-09-01T04:20:32.980Z,14.14
2016-09-01T04:21:33.033Z,14.2
2016-09-01T04:22:32.973Z,14.25
2016-09-01T04:23:32.959Z,14.19
2016-09-01T04:24:32.973Z,14.12
2016-09-01T04:25:32.962Z,14.28
2016-09-01T04:26:32.978Z,14.28
2016-09-01T04:27:33.541Z,14.28
2016-09-01T04:28:32.965Z,14.19
2016-09-01T04:29:33.008Z,14.14
2016-09-01T04:30:33.774Z,14.24
2016-09-01T04:31:32.993Z,14.16
2016-09-01T04:32:32.975Z,14.12
2016-09-01T04:33:33.094Z,14.19
2016-09-01T04:34:32.959Z,14.17
2016-09-01T04:35:33.011Z,14.2
2016-09-01T04:36:33.019Z,14.16
2016-09-01T04:37:33.001Z,14.16
2016-09-01T04:38:32.978Z,14.24
2016-09-01T04:39:33.080Z,14.14
2016-09-01T04:40:33.019Z,14.19
2016-09-01T04:41:33.474Z,14.14
2016-09-01T04:42:33.677Z,14.14
2016-09-01T04:43:34.370Z,14.09
2016-09-01T04:44:33.019Z,14.16
2016-09-01T04:45:32.994Z,14.13
2016-09-01T04:46:33.094Z,14.13
2016-09-01T04:47:33.246Z,14.07
2016-09-01T04:48:33.890Z,14.21
2016-09-01T04:49:33.104Z,14.13
2016-09-01T04:50:33.024Z,14.09
2016-09-01T04:51:33.174Z,14.04
2016-09-01T04:52:32.987Z,14.2
2016-09-01T04:53:33.239Z,14.04
2016-09-01T04:54:33.062Z,14.1
2016-09-01T04:55:33.259Z,14.09
2016-09-01T04:56:33.078Z,14.09
2016-09-01T04:57:33.161Z,14.12
2016-09-01T04:58:33.624Z,14.06
2016-09-01T04:59:34.119Z,13.95
2016-09-01T05:00:33.762Z,14.02
2016-09-01T05:01:33.098Z,14.07
2016-09-01T05:02:33.877Z,14.14
2016-09-01T05:03:33.043Z,14.04
2016-09-01T05:04:32.989Z,14.02
2016-09-01T05:05:33.406Z,14.09
2016-09-01T05:06:34.161Z,13.96
2016-09-01T05:07:33.020Z,14.07
2016-09-01T05:08:32.990Z,14.02
2016-09-01T05:09:33.024Z,14.07
2016-09-01T05:10:33.887Z,13.99
2016-09-01T05:11:33.666Z,13.99
2016-09-01T05:12:33.008Z,14.12
2016-09-01T05:13:33.161Z,14.02
2016-09-01T05:14:33.026Z,13.95
2016-09-01T05:15:33.672Z,14.09
2016-09-01T05:16:33.652Z,14.12
2016-09-01T05:17:33.022Z,14.06
2016-09-01T05:18:33.026Z,14.06
2016-09-01T05:19:33.063Z,14.02
2016-09-01T05:20:33.027Z,14.12
2016-09-01T05:21:33.031Z,14.04
2016-09-01T05:22:33.007Z,14.21
2016-09-01T05:23:33.161Z,14.17
2016-09-01T05:24:33.134Z,14.28
2016-09-01T05:25:33.038Z,14.24
2016-09-01T05:26:33.157Z,14.2
2016-09-01T05:27:33.125Z,14.24
2016-09-01T05:28:33.055Z,14.29
2016-09-01T05:29:33.024Z,14.21
2016-09-01T05:30:33.248Z,14.37
2016-09-01T05:31:33.022Z,14.39
2016-09-01T05:32:33.204Z,14.28
2016-09-01T05:33:33.051Z,14.38
2016-09-01T05:34:33.027Z,14.49
2016-09-01T05:35:33.035Z,14.52
2016-09-01T05:36:33.321Z,14.46
2016-09-01T05:37:33.023Z,14.57
2016-09-01T05:38:33.039Z,14.61
2016-09-01T05:39:33.058Z,14.75
2016-09-01T05:40:33.053Z,14.83
2016-09-01T05:41:33.746Z,14.74
2016-09-01T05:42:33.099Z,14.9
2016-09-01T05:43:33.039Z,14.98
2016-09-01T05:44:33.940Z,15.02
2016-09-01T05:45:34.402Z,14.98
2016-09-01T05:46:34.086Z,15.06
2016-09-01T05:47:33.050Z,15.15
2016-09-01T05:48:33.091Z,15.31
2016-09-01T05:49:33.106Z,15.42
2016-09-01T05:50:33.418Z,15.31
2016-09-01T05:51:33.589Z,15.54
2016-09-01T05:52:33.033Z,15.52
2016-09-01T05:53:33.929Z,15.64
2016-09-01T05:54:33.086Z,15.63
2016-09-01T05:55:33.134Z,15.75
2016-09-01T05:56:33.079Z,15.78
2016-09-01T05:57:33.156Z,15.84
2016-09-01T05:58:33.220Z,15.92
2016-09-01T05:59:33.053Z,15.96
2016-09-01T06:00:33.071Z,16.04
2016-09-01T06:01:33.084Z,16.11
2016-09-01T06:02:33.059Z,16.16
2016-09-01T06:03:33.119Z,16.16
2016-09-01T06:04:33.069Z,16.26
2016-09-01T06:05:33.104Z,16.48
2016-09-01T06:06:33.115Z,16.38
2016-09-01T06:07:33.068Z,16.41
2016-09-01T06:08:33.083Z,16.53
2016-09-01T06:09:33.115Z,16.56
2016-09-01T06:10:33.102Z,16.71
2016-09-01T06:11:33.068Z,16.65
2016-09-01T06:12:33.135Z,16.63
2016-09-01T06:13:33.098Z,16.73
2016-09-01T06:14:33.117Z,16.81
2016-09-01T06:15:33.100Z,16.74
2016-09-01T06:16:33.149Z,16.77
2016-09-01T06:17:33.097Z,16.88
2016-09-01T06:18:33.042Z,16.92
2016-09-01T06:19:33.095Z,16.88
2016-09-01T06:20:33.205Z,16.93
2016-09-01T06:21:33.057Z,17.1
2016-09-01T06:22:33.086Z,17.1
2016-09-01T06:23:33.086Z,16.99
2016-09-01T06:24:33.386Z,17.11
2016-09-01T06:25:33.460Z,17.22
2016-09-01T06:26:33.086Z,17.23
2016-09-01T06:27:33.165Z,17.17
2016-09-01T06:28:33.100Z,17.26
2016-09-01T06:29:33.100Z,17.26
2016-09-01T06:30:33.156Z,17.28
2016-09-01T06:31:33.091Z,17.28
2016-09-01T06:32:33.086Z,17.32
2016-09-01T06:33:33.102Z,17.46
2016-09-01T06:34:33.100Z,17.53
2016-09-01T06:35:33.088Z,17.53
2016-09-01T06:36:33.108Z,17.51
2016-09-01T06:37:33.098Z,17.53
2016-09-01T06:38:33.105Z,17.62
2016-09-01T06:39:33.081Z,17.53
2016-09-01T06:40:33.118Z,17.63
2016-09-01T06:41:33.098Z,17.66
2016-09-01T06:42:33.091Z,17.7
2016-09-01T06:43:33.101Z,17.74
2016-09-01T06:44:33.165Z,17.74
2016-09-01T06:45:33.092Z,17.81
2016-09-01T06:46:33.138Z,18.04
2016-09-01T06:47:33.123Z,18.03
2016-09-01T06:48:33.146Z,17.95
2016-09-01T06:49:33.119Z,18.1
2016-09-01T06:50:33.131Z,18.12
2016-09-01T06:51:33.135Z,18.15
2016-09-01T06:52:33.112Z,18.22
2016-09-01T06:53:33.118Z,18.4
2016-09-01T06:54:33.107Z,18.4
2016-09-01T06:55:33.216Z,18.44
2016-09-01T06:56:33.176Z,18.5
2016-09-01T06:57:33.151Z,18.52
2016-09-01T06:58:33.118Z,18.5
2016-09-01T06:59:33.109Z,18.68
2016-09-01T07:00:33.150Z,18.64
2016-09-01T07:01:33.119Z,18.73
2016-09-01T07:02:33.125Z,18.68
2016-09-01T07:03:33.179Z,18.79
2016-09-01T07:04:33.209Z,19.02
2016-09-01T07:05:33.185Z,19.08
2016-09-01T07:06:33.195Z,18.98
2016-09-01T07:07:33.658Z,19.15
2016-09-01T07:08:33.184Z,19.15
2016-09-01T07:09:33.186Z,19.24
2016-09-01T07:10:33.151Z,19.25
2016-09-01T07:11:33.149Z,19.36
2016-09-01T07:12:33.283Z,19.32
2016-09-01T07:13:33.645Z,19.4
2016-09-01T07:14:33.179Z,19.32
2016-09-01T07:15:33.171Z,19.47
2016-09-01T07:16:33.807Z,19.35
2016-09-01T07:17:33.219Z,19.42
2016-09-01T07:18:33.164Z,19.47
2016-09-01T07:19:33.418Z,19.46
2016-09-01T07:20:33.835Z,19.42
2016-09-01T07:21:33.787Z,19.43
2016-09-01T07:22:33.154Z,19.38
2016-09-01T07:23:33.154Z,19.36
2016-09-01T07:24:33.193Z,19.39
2016-09-01T07:25:33.177Z,19.25
2016-09-01T07:26:33.164Z,19.46
2016-09-01T07:27:33.195Z,19.51
2016-09-01T07:28:33.226Z,19.54
2016-09-01T07:29:33.223Z,19.48
2016-09-01T07:30:33.211Z,19.51
2016-09-01T07:31:33.209Z,19.58
2016-09-01T07:32:33.244Z,19.55
2016-09-01T07:33:33.197Z,19.61
2016-09-01T07:34:33.210Z,19.65
2016-09-01T07:35:34.053Z,19.54
2016-09-01T07:36:34.128Z,19.66
2016-09-01T07:37:33.705Z,19.58
2016-09-01T07:38:33.192Z,19.73
2016-09-01T07:39:33.292Z,19.72
2016-09-01T07:40:34.209Z,19.72
2016-09-01T07:41:33.226Z,19.79
2016-09-01T07:42:33.225Z,19.83
2016-09-01T07:43:33.233Z,19.87
2016-09-01T07:44:33.276Z,19.9
2016-09-01T07:45:34.159Z,19.94
2016-09-01T07:46:33.238Z,19.93
2016-09-01T07:47:33.203Z,20
2016-09-01T07:48:33.288Z,19.84
2016-09-01T07:49:33.806Z,19.79
2016-09-01T07:50:33.231Z,19.88
2016-09-01T07:51:33.294Z,19.87
2016-09-01T07:52:33.290Z,19.94
2016-09-01T07:53:33.215Z,20.1
2016-09-01T07:54:33.255Z,20.03
2016-09-01T07:55:33.233Z,20.05
2016-09-01T07:56:33.202Z,20.12
2016-09-01T07:57:33.253Z,20.12
2016-09-01T07:58:33.269Z,20.2
2016-09-01T07:59:33.311Z,20.25
2016-09-01T08:00:33.233Z,20.3
2016-09-01T08:01:33.463Z,20.38
2016-09-01T08:02:33.219Z,20.3
2016-09-01T08:03:33.199Z,20.49
2016-09-01T08:04:33.211Z,20.43
2016-09-01T08:05:33.199Z,20.43
2016-09-01T08:06:33.184Z,20.47
2016-09-01T08:07:33.197Z,20.33
2016-09-01T08:08:33.205Z,20.39
2016-09-01T08:09:33.228Z,20.49
2016-09-01T08:10:33.295Z,20.56
2016-09-01T08:11:33.234Z,20.49
2016-09-01T08:12:33.209Z,20.5
2016-09-01T08:13:33.229Z,20.59
2016-09-01T08:14:33.229Z,20.65
2016-09-01T08:15:33.283Z,20.72
2016-09-01T08:16:33.258Z,20.8
2016-09-01T08:17:33.213Z,20.81
2016-09-01T08:18:33.235Z,20.83
2016-09-01T08:19:33.180Z,20.91
2016-09-01T08:20:33.184Z,20.81
2016-09-01T08:21:33.722Z,20.91
2016-09-01T08:22:33.392Z,20.91
2016-09-01T08:23:33.270Z,20.99
2016-09-01T08:24:33.884Z,21.08
2016-09-01T08:25:33.262Z,21.11
2016-09-01T08:26:34.265Z,21.08
2016-09-01T08:27:33.742Z,21.19
2016-09-01T08:28:33.289Z,21.26
2016-09-01T08:29:33.259Z,21.36
2016-09-01T08:30:33.282Z,21.32
2016-09-01T08:31:33.295Z,21.35
2016-09-01T08:32:33.980Z,21.44
2016-09-01T08:33:33.766Z,21.38
2016-09-01T08:34:33.953Z,21.32
2016-09-01T08:35:33.286Z,21.23
2016-09-01T08:36:33.279Z,21.23
2016-09-01T08:37:33.985Z,21.2
2016-09-01T08:38:33.320Z,21.19
2016-09-01T08:39:33.251Z,21.2
2016-09-01T08:40:33.783Z,21.27
2016-09-01T08:41:33.921Z,21.2
2016-09-01T08:42:33.336Z,21.32
2016-09-01T08:43:33.272Z,21.27
2016-09-01T08:44:33.407Z,21.36
2016-09-01T08:45:33.324Z,21.3
2016-09-01T08:46:33.488Z,21.26
2016-09-01T08:47:33.314Z,21.32
2016-09-01T08:48:33.273Z,21.44
2016-09-01T08:49:33.270Z,21.38
2016-09-01T08:50:34.327Z,21.56
2016-09-01T08:51:33.294Z,21.5
2016-09-01T08:52:33.292Z,21.57
2016-09-01T08:53:33.308Z,21.59
2016-09-01T08:54:33.347Z,21.66
2016-09-01T08:55:33.322Z,21.71
2016-09-01T08:56:33.273Z,21.57
2016-09-01T08:57:33.320Z,21.64
2016-09-01T08:58:33.316Z,21.71
2016-09-01T08:59:33.293Z,21.82
2016-09-01T09:00:33.334Z,21.83
2016-09-01T09:01:33.246Z,21.78
2016-09-01T09:02:33.315Z,21.82
2016-09-01T09:03:33.330Z,21.78
2016-09-01T09:04:33.468Z,21.85
2016-09-01T09:05:33.350Z,21.9
2016-09-01T09:06:33.385Z,21.9
2016-09-01T09:07:33.285Z,21.95
2016-09-01T09:08:34.230Z,21.97
2016-09-01T09:09:33.425Z,22.12
2016-09-01T09:10:33.260Z,22.02
2016-09-01T09:11:33.336Z,22.09
2016-09-01T09:12:33.918Z,22.09
2016-09-01T09:13:33.300Z,22.2
2016-09-01T09:14:33.309Z,22.17
2016-09-01T09:15:33.281Z,22.29
2016-09-01T09:16:33.303Z,22.34
2016-09-01T09:17:33.382Z,22.29
2016-09-01T09:18:33.289Z,22.34
2016-09-01T09:19:33.295Z,22.43
2016-09-01T09:20:33.287Z,22.41
2016-09-01T09:21:33.899Z,22.39
2016-09-01T09:22:34.102Z,22.43
2016-09-01T09:23:33.371Z,22.44
2016-09-01T09:24:33.573Z,22.47
2016-09-01T09:25:33.757Z,22.5
2016-09-01T09:26:33.358Z,22.49
2016-09-01T09:27:33.351Z,22.6
2016-09-01T09:28:33.318Z,22.56
2016-09-01T09:29:33.310Z,22.57
2016-09-01T09:30:33.325Z,22.57
2016-09-01T09:31:33.340Z,22.68
2016-09-01T09:32:33.333Z,22.68
2016-09-01T09:33:33.345Z,22.72
2016-09-01T09:34:33.331Z,22.68
2016-09-01T09:35:33.824Z,22.71
2016-09-01T09:36:33.615Z,22.74
2016-09-01T09:37:33.366Z,22.83
2016-09-01T09:38:33.348Z,22.84
2016-09-01T09:39:33.334Z,22.8
2016-09-01T09:40:33.317Z,22.8
2016-09-01T09:41:33.296Z,22.84
2016-09-01T09:42:33.346Z,22.87
2016-09-01T09:43:33.337Z,22.86
2016-09-01T09:44:33.440Z,22.87
2016-09-01T09:45:33.379Z,23.04
2016-09-01T09:46:33.398Z,22.96
2016-09-01T09:47:33.863Z,22.96
2016-09-01T09:48:33.307Z,23.07
2016-09-01T09:49:33.343Z,23.01
2016-09-01T09:50:33.376Z,23.02
2016-09-01T09:51:33.340Z,23.02
2016-09-01T09:52:33.342Z,23.12
2016-09-01T09:53:33.355Z,23.09
2016-09-01T09:54:33.314Z,23.12
2016-09-01T09:55:33.329Z,23.24
2016-09-01T09:56:33.456Z,23.24
2016-09-01T09:57:33.989Z,23.23
2016-09-01T09:58:33.454Z,23.27
2016-09-01T09:59:33.406Z,23.34
2016-09-01T10:00:33.337Z,23.34
2016-09-01T10:01:33.337Z,23.31
2016-09-01T10:02:33.356Z,23.47
2016-09-01T10:03:33.370Z,23.42
2016-09-01T10:04:33.340Z,23.43
2016-09-01T10:05:33.310Z,23.52
2016-09-01T10:06:33.307Z,23.52
2016-09-01T10:07:33.283Z,23.58
2016-09-01T10:08:33.300Z,23.65
2016-09-01T10:09:33.950Z,23.52
2016-09-01T10:10:33.943Z,23.64
2016-09-01T10:11:33.319Z,23.67
2016-09-01T10:12:33.403Z,23.67
2016-09-01T10:13:33.333Z,23.77
2016-09-01T10:14:33.341Z,23.77
2016-09-01T10:15:33.351Z,23.75
2016-09-01T10:16:33.459Z,23.76
2016-09-01T10:17:33.391Z,23.8
2016-09-01T10:18:33.397Z,23.7
2016-09-01T10:19:33.370Z,23.65
2016-09-01T10:20:33.950Z,23.72
2016-09-01T10:21:33.378Z,23.82
2016-09-01T10:22:33.310Z,23.71
2016-09-01T10:23:33.853Z,23.95
2016-09-01T10:24:33.370Z,23.97
2016-09-01T10:25:33.389Z,24.02
2016-09-01T10:26:33.442Z,24.04
2016-09-01T10:27:33.344Z,24
2016-09-01T10:28:33.360Z,24.02
2016-09-01T10:29:33.342Z,24.2
2016-09-01T10:30:33.375Z,24.22
2016-09-01T10:31:33.974Z,24.38
2016-09-01T10:32:33.423Z,24.24
2016-09-01T10:33:33.351Z,24.32
2016-09-01T10:34:33.448Z,24.35
2016-09-01T10:35:33.481Z,24.44
2016-09-01T10:36:33.450Z,24.47
2016-09-01T10:37:33.393Z,24.44
2016-09-01T10:38:33.446Z,24.52
2016-09-01T10:39:33.450Z,24.41
2016-09-01T10:40:33.429Z,24.49
2016-09-01T10:41:33.403Z,24.52
2016-09-01T10:42:33.408Z,24.59
2016-09-01T10:43:33.390Z,24.53
2016-09-01T10:44:33.396Z,24.9
2016-09-01T10:45:33.444Z,24.82
2016-09-01T10:46:33.422Z,24.88
2016-09-01T10:47:33.410Z,25.05
2016-09-01T10:48:33.415Z,25.12
2016-09-01T10:49:33.370Z,25.15
2016-09-01T10:50:33.448Z,25.24
2016-09-01T10:51:33.387Z,25.39
2016-09-01T10:52:33.430Z,25.54
2016-09-01T10:53:33.421Z,25.68
2016-09-01T10:54:33.388Z,25.61
2016-09-01T10:55:33.375Z,25.69
2016-09-01T10:56:34.029Z,25.68
2016-09-01T10:57:33.419Z,25.65
2016-09-01T10:58:33.429Z,25.61
2016-09-01T10:59:33.376Z,25.61
2016-09-01T11:00:33.400Z,25.8
2016-09-01T11:01:33.433Z,25.91
2016-09-01T11:02:33.391Z,25.93
2016-09-01T11:03:34.014Z,26.05
2016-09-01T11:04:34.406Z,26.02
2016-09-01T11:05:33.402Z,26.22
2016-09-01T11:06:33.388Z,26.25
2016-09-01T11:07:33.402Z,26.27
2016-09-01T11:08:33.407Z,26.24
2016-09-01T11:09:34.306Z,26.37
2016-09-01T11:10:33.386Z,26.37
2016-09-01T11:11:33.387Z,26.29
2016-09-01T11:12:33.405Z,26.22
2016-09-01T11:13:33.393Z,26.29
2016-09-01T11:14:34.308Z,26.36
2016-09-01T11:15:33.437Z,26.27
2016-09-01T11:16:33.463Z,26.4
2016-09-01T11:17:33.427Z,26.57
2016-09-01T11:18:33.432Z,26.65
2016-09-01T11:19:34.213Z,26.61
2016-09-01T11:20:33.499Z,26.61
2016-09-01T11:21:34.375Z,26.73
2016-09-01T11:22:33.484Z,26.72
2016-09-01T11:23:33.432Z,26.61
2016-09-01T11:24:33.440Z,26.69
2016-09-01T11:25:33.468Z,26.55
2016-09-01T11:26:33.447Z,26.49
2016-09-01T11:27:33.452Z,26.32
2016-09-01T11:28:33.486Z,26.35
2016-09-01T11:29:33.391Z,26.31
2016-09-01T11:30:33.482Z,26.27
2016-09-01T11:31:33.447Z,26.37
2016-09-01T11:32:33.500Z,26.57
2016-09-01T11:33:33.437Z,26.64
2016-09-01T11:34:33.441Z,26.83
2016-09-01T11:35:33.478Z,26.74
2016-09-01T11:36:33.503Z,26.68
2016-09-01T11:37:33.455Z,26.59
2016-09-01T11:38:33.451Z,26.74
2016-09-01T11:39:33.530Z,26.83
2016-09-01T11:40:33.434Z,26.84
2016-09-01T11:41:33.463Z,26.73
2016-09-01T11:42:33.462Z,26.74
2016-09-01T11:43:33.735Z,26.68
2016-09-01T11:44:33.387Z,26.77
2016-09-01T11:45:33.410Z,26.86
2016-09-01T11:46:33.434Z,26.65
2016-09-01T11:47:33.422Z,26.64
2016-09-01T11:48:33.422Z,26.59
2016-09-01T11:49:33.494Z,26.67
2016-09-01T11:50:33.444Z,26.52
2016-09-01T11:51:33.423Z,26.43
2016-09-01T11:52:33.462Z,26.36
2016-09-01T11:53:33.468Z,26.31
2016-09-01T11:54:45.975Z,26.29
2016-09-01T11:55:33.455Z,26.24
2016-09-01T11:56:33.425Z,26.18
2016-09-01T11:57:33.397Z,26.05
2016-09-01T11:58:33.434Z,26.05
2016-09-01T11:59:33.477Z,25.87
2016-09-01T12:00:33.484Z,25.84
2016-09-01T12:01:33.410Z,25.91
2016-09-01T12:02:33.453Z,26.04
2016-09-01T12:03:33.405Z,25.87
2016-09-01T12:04:33.475Z,26.08
2016-09-01T12:05:33.450Z,25.84
2016-09-01T12:06:33.471Z,25.98
2016-09-01T12:07:33.433Z,26.01
2016-09-01T12:08:33.476Z,25.94
2016-09-01T12:09:33.417Z,25.97
2016-09-01T12:10:33.428Z,25.98
2016-09-01T12:11:33.481Z,25.91
2016-09-01T12:12:33.442Z,25.9
2016-09-01T12:13:33.450Z,25.86
2016-09-01T12:14:33.481Z,25.87
2016-09-01T12:15:33.415Z,25.86
2016-09-01T12:16:33.466Z,25.93
2016-09-01T12:17:33.445Z,25.84
2016-09-01T12:18:33.447Z,26.02
2016-09-01T12:19:33.439Z,25.91
2016-09-01T12:20:33.433Z,25.79
2016-09-01T12:21:33.455Z,25.87
2016-09-01T12:22:33.437Z,25.93
2016-09-01T12:23:33.454Z,25.94
2016-09-01T12:24:33.419Z,25.82
2016-09-01T12:25:33.469Z,25.8
2016-09-01T12:26:33.463Z,25.87
2016-09-01T12:27:33.437Z,25.93
2016-09-01T12:28:33.472Z,26.2
2016-09-01T12:29:33.448Z,26.37
2016-09-01T12:30:33.469Z,26.46
2016-09-01T12:31:33.466Z,26.58
2016-09-01T12:32:33.509Z,26.73
2016-09-01T12:33:33.438Z,26.64
2016-09-01T12:34:33.467Z,26.79
2016-09-01T12:35:33.458Z,26.68
2016-09-01T12:36:33.457Z,26.69
2016-09-01T12:37:33.463Z,26.79
2016-09-01T12:38:33.468Z,26.68
2016-09-01T12:39:33.548Z,26.74
2016-09-01T12:40:33.455Z,26.77
2016-09-01T12:41:33.467Z,26.87
2016-09-01T12:42:33.458Z,26.84
2016-09-01T12:43:33.524Z,26.8
2016-09-01T12:44:33.493Z,26.86
2016-09-01T12:45:33.490Z,26.89
2016-09-01T12:46:33.472Z,26.92
2016-09-01T12:47:33.485Z,26.91
2016-09-01T12:48:33.492Z,26.84
2016-09-01T12:49:33.471Z,26.92
2016-09-01T12:50:33.473Z,26.89
2016-09-01T12:51:33.560Z,26.91
2016-09-01T12:52:33.487Z,26.81
2016-09-01T12:53:33.501Z,26.86
2016-09-01T12:54:33.664Z,26.69
2016-09-01T12:55:33.502Z,26.69